createdAt,value
2023-02-19T00:01:56.067Z,29.53
2023-02-19T00:04:27.265Z,27.47
2023-02-19T00:06:53.987Z,26.50
2023-02-19T00:09:25.487Z,30.83
2023-02-19T00:11:59.720Z,32.13
2023-02-19T00:14:26.364Z,25.83
2023-02-19T00:16:55.191Z,27.17
2023-02-19T00:19:28.674Z,25.17
2023-02-19T00:21:55.386Z,22.57
2023-02-19T00:24:24.196Z,24.03
2023-02-19T00:26:50.859Z,27.40
2023-02-19T00:29:24.310Z,25.27
2023-02-19T00:31:54.340Z,27.27
2023-02-19T00:34:21.152Z,21.00
2023-02-19T00:36:47.822Z,30.37
2023-02-19T00:39:25.736Z,24.30
2023-02-19T00:42:02.753Z,24.50
2023-02-19T00:44:29.496Z,28.27
2023-02-19T00:46:56.120Z,24.00
2023-02-19T00:49:33.470Z,25.00
2023-02-19T00:52:00.122Z,26.40
2023-02-19T00:54:27.745Z,23.73
2023-02-19T00:56:54.412Z,22.60
2023-02-19T00:59:30.234Z,23.80
2023-02-19T01:01:57.146Z,25.77
2023-02-19T01:04:23.951Z,20.70
2023-02-19T01:06:55.616Z,19.30
2023-02-19T01:09:25.365Z,22.23
2023-02-19T01:11:54.596Z,21.67
2023-02-19T01:14:28.859Z,20.17
2023-02-19T01:16:55.563Z,19.50
2023-02-19T01:19:25.361Z,22.17
2023-02-19T01:21:55.118Z,18.63
2023-02-19T01:24:24.278Z,18.73
2023-02-19T01:26:58.586Z,22.33
2023-02-19T01:29:25.260Z,21.97
2023-02-19T01:31:54.820Z,19.27
2023-02-19T01:34:23.819Z,20.93
2023-02-19T01:36:51.436Z,21.13
2023-02-19T01:39:18.133Z,18.30
2023-02-19T01:41:55.141Z,21.27
2023-02-19T01:44:21.742Z,19.50
2023-02-19T01:46:58.647Z,21.63
2023-02-19T01:49:28.461Z,19.10
2023-02-19T01:52:02.675Z,16.80
2023-02-19T01:54:32.667Z,17.20
2023-02-19T01:57:00.109Z,22.73
2023-02-19T01:59:26.747Z,20.90
2023-02-19T02:01:55.805Z,17.20
2023-02-19T02:04:25.746Z,18.17
2023-02-19T02:06:55.225Z,19.33
2023-02-19T02:09:49.546Z,17.93
2023-02-19T02:12:16.222Z,15.97
2023-02-19T02:14:45.950Z,18.63
2023-02-19T02:17:25.611Z,18.90
2023-02-19T02:20:14.203Z,18.30
2023-02-19T02:23:00.780Z,17.50
2023-02-19T02:25:52.807Z,20.43
2023-02-19T02:28:23.220Z,16.70
2023-02-19T02:30:57.290Z,17.73
2023-02-19T02:33:33.883Z,17.40
2023-02-19T02:36:08.328Z,17.90
2023-02-19T02:38:39.662Z,19.17
2023-02-19T02:41:06.820Z,18.00
2023-02-19T02:43:33.853Z,15.80
2023-02-19T02:46:11.702Z,15.70
2023-02-19T02:48:53.953Z,14.47
2023-02-19T02:51:33.391Z,15.27
2023-02-19T02:54:29.710Z,17.87
2023-02-19T02:56:58.665Z,15.30
2023-02-19T02:59:33.010Z,16.00
2023-02-19T03:02:14.470Z,17.00
2023-02-19T03:05:06.274Z,16.07
2023-02-19T03:07:42.200Z,16.53
2023-02-19T03:10:15.178Z,22.80
2023-02-19T03:13:01.831Z,15.93
2023-02-19T03:15:51.015Z,15.90
2023-02-19T03:18:37.755Z,20.23
2023-02-19T03:21:05.837Z,19.47
2023-02-19T03:23:52.083Z,15.13
2023-02-19T03:26:19.936Z,20.00
2023-02-19T03:29:10.044Z,20.53
2023-02-19T03:31:39.983Z,21.20
2023-02-19T03:34:14.392Z,21.67
2023-02-19T03:36:46.824Z,21.00
2023-02-19T03:39:15.772Z,19.13
2023-02-19T03:41:55.116Z,20.57
2023-02-19T03:44:52.316Z,20.93
2023-02-19T03:47:53.138Z,21.53
2023-02-19T03:50:26.598Z,22.53
2023-02-19T03:53:12.921Z,30.03
2023-02-19T03:55:57.967Z,28.13
2023-02-19T03:58:28.533Z,22.60
2023-02-19T04:01:13.248Z,22.43
2023-02-19T04:03:47.126Z,27.40
2023-02-19T04:06:19.578Z,25.50
2023-02-19T04:08:50.279Z,28.90
2023-02-19T04:11:18.662Z,27.43
2023-02-19T04:13:58.480Z,21.73
2023-02-19T04:16:28.552Z,19.83
2023-02-19T04:18:59.474Z,21.97
2023-02-19T04:21:29.207Z,22.30
2023-02-19T04:23:59.473Z,22.90
2023-02-19T04:26:26.288Z,26.63
2023-02-19T04:28:55.497Z,22.87
2023-02-19T04:31:22.680Z,21.80
2023-02-19T04:33:49.380Z,27.10
2023-02-19T04:36:16.051Z,21.47
2023-02-19T04:38:42.718Z,23.30
2023-02-19T04:41:12.783Z,22.93
2023-02-19T04:43:39.607Z,23.30
2023-02-19T04:46:06.388Z,20.23
2023-02-19T04:48:36.061Z,22.70
2023-02-19T04:51:07.153Z,20.53
2023-02-19T04:53:37.480Z,18.67
2023-02-19T04:56:25.577Z,18.80
2023-02-19T04:58:52.253Z,12.73
2023-02-19T05:01:18.970Z,13.13
2023-02-19T05:03:45.611Z,9.00
2023-02-19T05:06:13.469Z,6.90
2023-02-19T05:08:40.971Z,5.67
2023-02-19T05:11:10.699Z,5.20
2023-02-19T05:13:46.324Z,5.53
2023-02-19T05:16:16.000Z,6.47
2023-02-19T05:18:52.421Z,5.50
2023-02-19T05:21:19.206Z,3.60
2023-02-19T05:23:45.850Z,2.53
2023-02-19T05:26:17.892Z,2.50
2023-02-19T05:28:49.014Z,3.43
2023-02-19T05:31:16.213Z,3.80
2023-02-19T05:33:44.191Z,4.00
2023-02-19T05:36:12.846Z,4.03
2023-02-19T05:38:40.509Z,2.67
2023-02-19T05:41:21.011Z,2.43
2023-02-19T05:43:48.666Z,2.67
2023-02-19T05:46:18.079Z,2.50
2023-02-19T05:48:44.833Z,2.50
2023-02-19T05:51:16.976Z,3.47
2023-02-19T05:53:44.432Z,2.80
2023-02-19T05:56:26.303Z,2.57
2023-02-19T05:58:53.785Z,2.53
2023-02-19T06:01:23.406Z,3.40
2023-02-19T06:03:58.107Z,3.57
2023-02-19T06:06:25.714Z,3.40
2023-02-19T06:08:52.546Z,2.73
2023-02-19T06:11:21.712Z,2.37
2023-02-19T06:13:51.089Z,2.30
2023-02-19T06:16:18.472Z,4.37
2023-02-19T06:18:45.712Z,2.00
2023-02-19T06:21:12.759Z,2.37
2023-02-19T06:23:43.040Z,3.50
2023-02-19T06:26:11.313Z,3.90
2023-02-19T06:28:39.110Z,4.40
2023-02-19T06:31:06.371Z,3.17
2023-02-19T06:33:41.288Z,9.63
2023-02-19T06:36:13.847Z,5.00
2023-02-19T06:38:49.885Z,3.83
2023-02-19T06:41:16.793Z,4.40
2023-02-19T06:43:43.574Z,9.30
2023-02-19T06:46:20.314Z,2.10
2023-02-19T06:48:47.062Z,8.20
2023-02-19T06:51:15.772Z,2.63
2023-02-19T06:53:42.427Z,2.50
2023-02-19T06:56:23.410Z,2.77
2023-02-19T06:58:50.386Z,1.73
2023-02-19T07:01:19.424Z,2.20
2023-02-19T07:03:46.183Z,1.77
2023-02-19T07:06:12.822Z,2.80
2023-02-19T07:08:39.542Z,5.30
2023-02-19T07:11:06.202Z,3.47
2023-02-19T07:13:35.978Z,6.83
2023-02-19T07:16:07.983Z,2.80
2023-02-19T07:18:38.631Z,3.90
2023-02-19T07:21:11.394Z,1.97
2023-02-19T07:23:38.483Z,3.00
2023-02-19T07:26:08.267Z,2.00
2023-02-19T07:28:37.455Z,4.20
2023-02-19T07:31:06.677Z,3.17
2023-02-19T07:33:33.340Z,5.90
2023-02-19T07:36:12.979Z,3.07
2023-02-19T07:38:39.971Z,6.70
2023-02-19T07:41:07.035Z,3.60
2023-02-19T07:43:41.063Z,5.67
2023-02-19T07:46:13.293Z,4.93
2023-02-19T07:48:41.122Z,3.60
2023-02-19T07:51:12.569Z,3.80
2023-02-19T07:53:39.430Z,6.50
2023-02-19T07:56:07.889Z,6.40
2023-02-19T07:58:42.317Z,8.43
2023-02-19T08:01:11.790Z,5.90
2023-02-19T08:03:39.195Z,8.20
2023-02-19T08:06:10.917Z,7.80
2023-02-19T08:08:38.960Z,6.23
2023-02-19T08:11:24.888Z,6.00
2023-02-19T08:13:52.594Z,8.43
2023-02-19T08:16:29.549Z,6.90
2023-02-19T08:19:04.265Z,3.40
2023-02-19T08:21:32.991Z,4.47
2023-02-19T08:24:00.820Z,5.90
2023-02-19T08:26:27.498Z,4.90
2023-02-19T08:28:54.150Z,5.83
2023-02-19T08:31:21.064Z,8.07
2023-02-19T08:33:47.737Z,4.43
2023-02-19T08:36:16.707Z,7.23
2023-02-19T08:38:43.449Z,4.87
2023-02-19T08:41:12.637Z,5.10
2023-02-19T08:43:40.931Z,5.27
2023-02-19T08:46:10.185Z,5.40
2023-02-19T08:48:37.729Z,5.30
2023-02-19T08:51:08.280Z,5.17
2023-02-19T08:53:36.786Z,4.07
2023-02-19T08:56:07.392Z,6.03
2023-02-19T08:58:37.407Z,5.17
2023-02-19T09:01:12.212Z,6.00
2023-02-19T09:03:39.293Z,3.67
2023-02-19T09:06:06.224Z,5.73
2023-02-19T09:08:35.743Z,3.87
2023-02-19T09:11:09.487Z,4.40
2023-02-19T09:13:36.514Z,4.23
2023-02-19T09:16:04.810Z,3.43
2023-02-19T09:18:32.051Z,6.73
2023-02-19T09:21:04.595Z,4.37
2023-02-19T09:23:35.760Z,8.17
2023-02-19T09:26:08.651Z,4.80
2023-02-19T09:28:41.627Z,6.60
2023-02-19T09:31:14.881Z,4.20
2023-02-19T09:33:45.562Z,5.63
2023-02-19T09:36:13.122Z,6.77
2023-02-19T09:38:40.602Z,5.63
2023-02-19T09:41:15.737Z,4.93
2023-02-19T09:43:43.364Z,6.27
2023-02-19T09:46:24.676Z,4.13
2023-02-19T09:48:53.687Z,10.27
2023-02-19T09:51:20.664Z,5.80
2023-02-19T09:53:49.810Z,4.50
2023-02-19T09:56:17.353Z,14.80
2023-02-19T09:58:49.884Z,3.70
2023-02-19T10:01:17.077Z,6.27
2023-02-19T10:03:48.411Z,3.83
2023-02-19T10:06:20.538Z,3.90
2023-02-19T10:08:48.301Z,4.20
2023-02-19T10:11:18.947Z,4.20
2023-02-19T10:14:03.331Z,9.93
2023-02-19T10:16:30.540Z,4.40
2023-02-19T10:18:57.258Z,5.00
2023-02-19T10:21:30.804Z,5.73
2023-02-19T10:24:01.396Z,4.87
2023-02-19T10:26:28.178Z,4.87
2023-02-19T10:28:56.811Z,5.47
2023-02-19T10:31:26.564Z,6.77
2023-02-19T10:33:58.280Z,4.97
2023-02-19T10:36:42.936Z,6.87
2023-02-19T10:39:24.238Z,7.23
2023-02-19T10:42:02.261Z,4.40
2023-02-19T10:44:35.612Z,2.50
2023-02-19T10:47:02.319Z,4.70
2023-02-19T10:49:33.151Z,7.83
2023-02-19T10:52:21.856Z,5.47
2023-02-19T10:55:03.828Z,4.53
2023-02-19T10:57:33.118Z,4.47
2023-02-19T11:00:03.756Z,5.30
2023-02-19T11:02:31.332Z,4.77
2023-02-19T11:05:23.284Z,5.00
2023-02-19T11:08:20.986Z,4.90
2023-02-19T11:10:48.410Z,4.30
2023-02-19T11:13:22.120Z,4.53
2023-02-19T11:15:52.676Z,5.17
2023-02-19T11:18:25.116Z,4.60
2023-02-19T11:20:57.626Z,5.13
2023-02-19T11:23:28.671Z,5.07
2023-02-19T11:25:57.843Z,6.10
2023-02-19T11:28:38.919Z,6.30
2023-02-19T11:31:28.994Z,5.77
2023-02-19T11:34:00.973Z,4.30
2023-02-19T11:36:32.089Z,5.53
2023-02-19T11:39:03.183Z,5.40
2023-02-19T11:41:37.011Z,5.20
2023-02-19T11:44:50.988Z,4.23
2023-02-19T11:47:46.023Z,4.63
2023-02-19T11:50:19.828Z,4.00
2023-02-19T11:53:10.658Z,4.87
2023-02-19T11:55:59.328Z,3.43
2023-02-19T11:58:44.852Z,4.73
2023-02-19T12:01:17.596Z,4.30
2023-02-19T12:04:23.090Z,5.00
2023-02-19T12:07:06.700Z,4.40
2023-02-19T12:09:49.041Z,3.70
2023-02-19T12:12:46.067Z,4.03
2023-02-19T12:15:26.431Z,4.33
2023-02-19T12:17:56.124Z,4.87
2023-02-19T12:20:24.950Z,4.70
2023-02-19T12:22:54.512Z,4.07
2023-02-19T12:25:42.397Z,3.87
2023-02-19T12:28:08.970Z,3.50
2023-02-19T12:30:47.571Z,5.20
2023-02-19T12:33:36.099Z,4.83
2023-02-19T12:36:08.675Z,4.93
2023-02-19T12:39:06.517Z,4.00
2023-02-19T12:41:45.209Z,3.63
2023-02-19T12:44:36.971Z,2.80
2023-02-19T12:47:06.692Z,7.33
2023-02-19T12:49:37.280Z,3.60
2023-02-19T12:52:11.107Z,2.80
2023-02-19T12:54:43.327Z,5.00
2023-02-19T12:57:17.545Z,3.50
2023-02-19T12:59:48.143Z,4.17
2023-02-19T13:02:17.928Z,4.70
2023-02-19T13:05:11.086Z,3.87
2023-02-19T13:07:44.177Z,3.30
2023-02-19T13:10:10.826Z,2.97
2023-02-19T13:12:40.819Z,6.10
2023-02-19T13:15:12.649Z,4.43
2023-02-19T13:17:49.475Z,3.97
2023-02-19T13:20:32.666Z,5.00
2023-02-19T13:23:25.600Z,4.57
2023-02-19T13:26:07.542Z,8.83
2023-02-19T13:29:15.814Z,4.27
2023-02-19T13:32:05.134Z,2.47
2023-02-19T13:35:06.059Z,3.10
2023-02-19T13:37:35.736Z,3.50
2023-02-19T13:40:07.088Z,3.47
2023-02-19T13:42:35.535Z,2.60
2023-02-19T13:45:06.330Z,4.63
2023-02-19T13:47:53.046Z,3.00
2023-02-19T13:50:40.750Z,3.23
2023-02-19T13:53:45.130Z,4.70
2023-02-19T13:56:29.961Z,3.50
2023-02-19T13:58:58.239Z,3.73
2023-02-19T14:01:51.496Z,6.43
2023-02-19T14:04:40.162Z,6.73
2023-02-19T14:07:06.740Z,9.50
2023-02-19T14:09:36.711Z,11.13
2023-02-19T14:12:27.732Z,10.63
2023-02-19T14:14:55.282Z,11.17
2023-02-19T14:17:38.438Z,7.60
2023-02-19T14:20:17.086Z,6.10
2023-02-19T14:22:48.802Z,6.80
2023-02-19T14:25:25.667Z,6.67
2023-02-19T14:27:53.795Z,7.00
2023-02-19T14:30:21.608Z,8.07
2023-02-19T14:32:58.493Z,8.23
2023-02-19T14:35:43.404Z,12.30
2023-02-19T14:38:29.259Z,6.83
2023-02-19T14:40:56.023Z,6.17
2023-02-19T14:43:24.805Z,9.53
2023-02-19T14:45:56.809Z,8.17
2023-02-19T14:48:31.970Z,9.77
2023-02-19T14:51:08.204Z,10.27
2023-02-19T14:53:47.851Z,9.53
2023-02-19T14:56:26.738Z,8.70
2023-02-19T14:59:19.642Z,8.20
2023-02-19T15:01:46.456Z,12.43
2023-02-19T15:04:26.432Z,10.73
2023-02-19T15:06:57.699Z,12.37
2023-02-19T15:09:33.211Z,13.87
2023-02-19T15:12:00.467Z,9.07
2023-02-19T15:14:30.827Z,6.67
2023-02-19T15:17:01.460Z,10.60
2023-02-19T15:19:34.990Z,8.17
2023-02-19T15:22:02.557Z,9.60
2023-02-19T15:24:29.498Z,9.03
2023-02-19T15:26:58.769Z,8.20
2023-02-19T15:29:30.442Z,8.80
2023-02-19T15:32:02.481Z,8.40
2023-02-19T15:34:31.413Z,6.67
2023-02-19T15:37:05.114Z,9.50
2023-02-19T15:39:46.561Z,9.50
2023-02-19T15:42:20.426Z,9.97
2023-02-19T15:45:08.891Z,10.70
2023-02-19T15:47:45.966Z,12.50
2023-02-19T15:50:32.305Z,11.10
2023-02-19T15:53:09.172Z,8.80
2023-02-19T15:55:45.064Z,9.60
2023-02-19T15:58:25.128Z,12.63
2023-02-19T16:00:56.445Z,12.50
2023-02-19T16:03:24.948Z,8.37
2023-02-19T16:06:24.920Z,7.80
2023-02-19T16:09:01.832Z,6.07
2023-02-19T16:11:38.043Z,6.83
2023-02-19T16:14:24.608Z,6.03
2023-02-19T16:16:58.919Z,8.13
2023-02-19T16:19:44.684Z,5.97
2023-02-19T16:22:22.177Z,4.20
2023-02-19T16:24:53.786Z,3.97
2023-02-19T16:27:39.842Z,5.60
2023-02-19T16:30:30.228Z,5.90
2023-02-19T16:33:26.480Z,4.03
2023-02-19T16:35:57.938Z,7.50
2023-02-19T16:38:24.830Z,3.87
2023-02-19T16:40:52.404Z,4.67
2023-02-19T16:43:41.757Z,7.77
2023-02-19T16:46:14.591Z,5.23
2023-02-19T16:48:41.572Z,3.27
2023-02-19T16:51:09.717Z,3.60
2023-02-19T16:53:37.031Z,8.13
2023-02-19T16:56:07.987Z,5.80
2023-02-19T16:58:42.070Z,3.90
2023-02-19T17:01:16.159Z,4.33
2023-02-19T17:03:43.294Z,8.60
2023-02-19T17:06:11.414Z,15.90
2023-02-19T17:08:39.919Z,5.10
2023-02-19T17:11:20.078Z,6.23
2023-02-19T17:13:49.353Z,3.40
2023-02-19T17:16:41.744Z,9.30
2023-02-19T17:19:19.087Z,7.40
2023-02-19T17:21:46.815Z,9.70
2023-02-19T17:24:13.883Z,6.90
2023-02-19T17:26:40.487Z,6.93
2023-02-19T17:29:13.829Z,7.37
2023-02-19T17:31:40.697Z,8.50
2023-02-19T17:34:07.505Z,10.37
2023-02-19T17:36:34.538Z,8.63
2023-02-19T17:39:04.948Z,6.03
2023-02-19T17:41:34.065Z,8.27
2023-02-19T17:44:00.708Z,8.47
2023-02-19T17:46:27.827Z,8.10
2023-02-19T17:48:54.932Z,8.27
2023-02-19T17:51:22.255Z,6.97
2023-02-19T17:53:51.630Z,6.40
2023-02-19T17:56:20.322Z,7.77
2023-02-19T17:58:47.732Z,6.23
2023-02-19T18:01:15.112Z,7.03
2023-02-19T18:03:42.220Z,10.43
2023-02-19T18:06:09.032Z,9.23
2023-02-19T18:08:38.584Z,8.60
2023-02-19T18:11:09.422Z,8.70
2023-02-19T18:13:45.581Z,10.73
2023-02-19T18:16:15.714Z,11.10
2023-02-19T18:18:43.004Z,10.03
2023-02-19T18:21:18.697Z,9.23
2023-02-19T18:23:46.934Z,9.43
2023-02-19T18:26:18.981Z,12.17
2023-02-19T18:28:45.696Z,10.00
2023-02-19T18:31:12.682Z,7.80
2023-02-19T18:33:39.650Z,8.87
2023-02-19T18:36:18.842Z,8.10
2023-02-19T18:38:46.312Z,7.47
2023-02-19T18:41:13.920Z,9.10
2023-02-19T18:43:48.840Z,10.47
2023-02-19T18:46:15.676Z,15.93
2023-02-19T18:48:42.453Z,9.13
2023-02-19T18:51:10.914Z,11.03
2023-02-19T18:53:47.035Z,11.50
2023-02-19T18:56:13.756Z,9.20
2023-02-19T18:58:40.422Z,10.53
2023-02-19T19:01:10.473Z,10.07
2023-02-19T19:03:37.426Z,7.63
2023-02-19T19:06:08.725Z,8.60
2023-02-19T19:08:37.951Z,9.23
2023-02-19T19:11:07.214Z,10.60
2023-02-19T19:13:34.050Z,9.17
2023-02-19T19:16:00.817Z,9.83
2023-02-19T19:18:27.951Z,11.10
2023-02-19T19:20:56.724Z,10.90
2023-02-19T19:23:23.485Z,15.30
2023-02-19T19:25:50.356Z,10.80
2023-02-19T19:28:17.145Z,10.90
2023-02-19T19:30:43.855Z,12.40
2023-02-19T19:33:12.158Z,10.30
2023-02-19T19:35:40.687Z,10.87
2023-02-19T19:38:07.379Z,13.03
2023-02-19T19:40:34.053Z,11.50
2023-02-19T19:43:00.746Z,12.30
2023-02-19T19:45:27.578Z,9.60
2023-02-19T19:47:58.747Z,15.57
2023-02-19T19:50:25.663Z,13.80
2023-02-19T19:52:52.388Z,12.47
2023-02-19T19:55:21.466Z,13.60
2023-02-19T19:57:52.346Z,12.83
2023-02-19T20:00:22.265Z,12.63
2023-02-19T20:02:51.625Z,15.10
2023-02-19T20:05:21.255Z,12.50
2023-02-19T20:07:55.680Z,13.53
2023-02-19T20:10:22.490Z,14.50
2023-02-19T20:12:49.364Z,12.60
2023-02-19T20:15:21.788Z,15.50
2023-02-19T20:17:49.255Z,17.70
2023-02-19T20:20:19.098Z,14.47
2023-02-19T20:22:45.873Z,14.63
2023-02-19T20:25:24.935Z,13.60
2023-02-19T20:27:52.652Z,15.33
2023-02-19T20:30:22.225Z,14.00
2023-02-19T20:32:49.407Z,13.30
2023-02-19T20:35:17.741Z,15.13
2023-02-19T20:37:46.495Z,13.70
2023-02-19T20:40:17.731Z,15.17
2023-02-19T20:42:46.821Z,16.40
2023-02-19T20:45:34.034Z,14.03
2023-02-19T20:48:01.038Z,13.00
2023-02-19T20:50:27.949Z,13.57
2023-02-19T20:52:57.272Z,16.57
2023-02-19T20:55:26.007Z,15.70
2023-02-19T20:57:52.811Z,15.23
2023-02-19T21:00:34.199Z,13.60
2023-02-19T21:03:01.111Z,13.67
2023-02-19T21:05:28.004Z,16.83
2023-02-19T21:08:04.223Z,17.40
2023-02-19T21:10:31.145Z,10.70
2023-02-19T21:12:58.181Z,14.57
2023-02-19T21:15:32.270Z,17.07
2023-02-19T21:17:59.345Z,14.30
2023-02-19T21:20:26.204Z,15.20
2023-02-19T21:22:52.943Z,16.67
2023-02-19T21:25:19.683Z,13.00
2023-02-19T21:27:53.713Z,18.40
2023-02-19T21:30:20.584Z,16.37
2023-02-19T21:32:49.858Z,13.40
2023-02-19T21:35:19.127Z,12.50
2023-02-19T21:37:51.095Z,14.37
2023-02-19T21:40:22.170Z,14.63
2023-02-19T21:42:49.342Z,13.13
2023-02-19T21:45:23.611Z,13.97
2023-02-19T21:47:55.006Z,13.07
2023-02-19T21:50:22.657Z,14.40
2023-02-19T21:52:49.536Z,10.70
2023-02-19T21:55:23.802Z,12.87
2023-02-19T21:57:56.027Z,12.83
2023-02-19T22:00:23.021Z,12.40
2023-02-19T22:02:50.141Z,10.93
2023-02-19T22:05:20.027Z,12.97
2023-02-19T22:07:54.457Z,16.67
2023-02-19T22:10:21.713Z,12.80
2023-02-19T22:12:51.538Z,11.27
2023-02-19T22:15:21.225Z,19.33
2023-02-19T22:17:50.875Z,13.77
2023-02-19T22:20:21.718Z,13.73
2023-02-19T22:22:51.461Z,10.20
2023-02-19T22:25:22.257Z,11.30
2023-02-19T22:27:51.454Z,11.93
2023-02-19T22:30:20.735Z,13.03
2023-02-19T22:32:49.942Z,12.20
2023-02-19T22:35:24.159Z,11.90
2023-02-19T22:37:51.182Z,12.20
2023-02-19T22:40:35.524Z,15.70
2023-02-19T22:43:09.617Z,14.30
2023-02-19T22:45:36.281Z,8.20
2023-02-19T22:48:02.894Z,10.80
2023-02-19T22:50:29.536Z,10.63
2023-02-19T22:52:56.159Z,7.60
2023-02-19T22:55:22.784Z,9.13
2023-02-19T22:57:49.488Z,11.50
2023-02-19T23:00:18.554Z,8.63
2023-02-19T23:02:59.689Z,7.87
2023-02-19T23:05:26.426Z,6.40
2023-02-19T23:07:53.136Z,7.67
2023-02-19T23:10:28.415Z,9.67
2023-02-19T23:12:55.092Z,6.70
2023-02-19T23:15:21.780Z,9.03
2023-02-19T23:17:48.482Z,7.90
2023-02-19T23:20:24.075Z,7.13
2023-02-19T23:22:50.789Z,7.10
2023-02-19T23:25:19.610Z,8.70
2023-02-19T23:27:53.687Z,7.47
2023-02-19T23:30:20.702Z,8.00
2023-02-19T23:32:50.930Z,6.40
2023-02-19T23:35:19.992Z,6.73
2023-02-19T23:37:51.378Z,6.23
2023-02-19T23:40:20.828Z,7.60
2023-02-19T23:42:56.765Z,9.33
2023-02-19T23:45:23.544Z,10.30
2023-02-19T23:47:50.202Z,10.90
2023-02-19T23:50:24.383Z,9.20
2023-02-19T23:52:53.604Z,8.30
2023-02-19T23:55:20.270Z,9.57
2023-02-19T23:57:54.464Z,9.80
